Time;durP1;ratioP1;P1;durP2;ratioP2;P2;SDS_P1;SDS_P2;PMS_P1;PMS_P2;Temp;Humidity;BMP_temperature;BMP_pressure;BME280_temperature;BME280_humidity;BME280_pressure;Samples;Min_cycle;Max_cycle;Signal;HPM_P1;HPM_P2
2022/08/22 00:01:24;;;;;;;4.20;2.37;;;;;;;21.19;56.86;100181.28;5075629;28;20556;-71
2022/08/22 00:04:01;;;;;;;2.93;1.90;;;;;;;21.15;56.86;100184.44;5072262;28;20455;-70
2022/08/22 00:06:37;;;;;;;2.87;2.17;;;;;;;21.12;57.42;100184.69;5075095;28;20449;-71
2022/08/22 00:09:18;;;;;;;2.23;1.80;;;;;;;21.06;57.75;100179.81;5073970;28;20454;-72
2022/08/22 00:11:52;;;;;;;2.13;1.73;;;;;;;20.98;57.95;100180.50;5069463;28;21018;-72
2022/08/22 00:14:24;;;;;;;3.77;2.30;;;;;;;20.98;58.29;100183.25;5074474;28;20454;-72
2022/08/22 00:17:00;;;;;;;6.03;2.53;;;;;;;21.07;58.04;100184.28;5074090;28;20443;-71
2022/08/22 00:19:40;;;;;;;3.67;2.23;;;;;;;21.04;58.27;100185.44;5074163;28;20815;-71
2022/08/22 00:22:18;;;;;;;3.20;2.23;;;;;;;21.03;58.81;100184.56;5072095;28;20451;-72
2022/08/22 00:24:52;;;;;;;4.00;2.10;;;;;;;21.03;57.82;100181.84;5073202;28;20541;-70
2022/08/22 00:27:23;;;;;;;5.23;2.80;;;;;;;21.04;57.97;100172.59;5073019;28;20883;-69
2022/08/22 00:29:54;;;;;;;3.10;2.27;;;;;;;21.02;58.15;100184.69;5073649;28;20487;-71
2022/08/22 00:32:30;;;;;;;3.37;2.83;;;;;;;20.92;58.19;100173.75;5074773;28;20465;-72
2022/08/22 00:35:01;;;;;;;4.57;2.70;;;;;;;20.87;58.46;100170.59;5073741;28;20545;-71
2022/08/22 00:37:34;;;;;;;4.00;2.20;;;;;;;20.83;58.86;100169.13;5074370;28;20458;-70
2022/08/22 00:40:12;;;;;;;2.80;2.17;;;;;;;20.79;58.84;100170.41;5073336;28;20485;-71
2022/08/22 00:42:52;;;;;;;2.80;2.10;;;;;;;20.80;59.57;100172.13;5075954;28;20439;-72
2022/08/22 00:45:52;;;;;;;4.10;2.50;;;;;;;20.65;60.52;100176.28;5074702;28;20455;-71
2022/08/22 00:48:31;;;;;;;3.33;2.30;;;;;;;20.55;61.48;100173.47;5011225;28;20458;-71
2022/08/22 00:51:13;;;;;;;2.83;2.23;;;;;;;20.42;62.07;100163.66;5012613;28;20495;-72
2022/08/22 00:53:50;;;;;;;3.40;2.67;;;;;;;20.33;62.49;100163.63;5009826;28;20469;-71
2022/08/22 00:56:36;;;;;;;3.00;2.60;;;;;;;20.23;63.05;100166.31;5030697;28;20454;-72
2022/08/22 00:59:35;;;;;;;4.73;2.23;;;;;;;20.08;63.87;100165.81;5032481;28;20548;-73
2022/08/22 01:02:17;;;;;;;6.50;2.63;;;;;;;20.02;64.13;100168.25;4940104;29;20449;-71
2022/08/22 01:04:52;;;;;;;4.73;2.60;;;;;;;20.02;64.38;100179.16;4941101;29;20489;-71
2022/08/22 01:07:34;;;;;;;4.33;2.70;;;;;;;19.95;64.94;100176.13;4949358;29;20464;-71
2022/08/22 01:10:17;;;;;;;4.27;2.63;;;;;;;19.90;65.35;100173.78;4947407;29;20531;-72
2022/08/22 01:13:05;;;;;;;5.10;2.83;;;;;;;19.80;66.38;100172.84;4938211;29;20572;-72
2022/08/22 01:15:36;;;;;;;4.50;2.90;;;;;;;19.74;66.20;100176.13;4940753;29;20586;-71
2022/08/22 01:18:28;;;;;;;6.23;2.87;;;;;;;19.69;67.04;100165.59;4940621;29;20465;-71
2022/08/22 01:21:35;;;;;;;3.70;2.70;;;;;;;19.70;66.63;100169.22;4941256;29;20480;-72
2022/08/22 01:28:09;;;;;;;3.90;2.70;;;;;;;19.67;66.65;100167.59;4996543;28;20242;-71
2022/08/22 01:30:59;;;;;;;2.60;2.40;;;;;;;19.59;67.12;100161.91;4988260;28;20573;-71
2022/08/22 01:34:01;;;;;;;3.30;3.00;;;;;;;19.56;67.50;100163.03;4996811;28;20231;-73
2022/08/22 01:37:03;;;;;;;4.37;2.57;;;;;;;19.61;67.21;100159.91;4896884;29;20293;-72
2022/08/22 01:39:50;;;;;;;3.45;2.35;;;;;;;19.61;67.23;100162.63;4915370;29;20448;-71
2022/08/22 01:42:35;;;;;;;3.83;2.63;;;;;;;19.69;66.56;100160.13;4913673;29;20202;-71
2022/08/22 01:45:32;;;;;;;2.80;2.40;;;;;;;19.83;65.64;100158.94;4908271;29;20550;-72
2022/08/22 01:48:06;;;;;;;4.67;2.10;;;;;;;19.89;65.36;100152.91;4909482;29;20713;-72
2022/08/22 01:50:39;;;;;;;2.77;2.20;;;;;;;19.87;65.16;100156.78;4914324;29;20485;-71
2022/08/22 01:53:10;;;;;;;3.22;2.30;;;;;;;19.88;65.17;100158.53;4915103;29;20490;-74
2022/08/22 01:55:46;;;;;;;4.90;2.80;;;;;;;19.90;65.23;100151.03;4907496;29;20204;-72
2022/08/22 01:58:19;;;;;;;3.10;2.38;;;;;;;19.90;65.13;100153.78;4907450;29;20437;-71
2022/08/22 02:01:00;;;;;;;2.87;2.20;;;;;;;19.88;65.53;100150.34;4914319;29;20245;-72
2022/08/22 02:03:32;;;;;;;3.88;2.72;;;;;;;19.84;65.83;100155.19;4913859;29;20504;-70
2022/08/22 02:06:04;;;;;;;3.10;2.20;;;;;;;19.83;66.11;100149.84;4915695;29;20202;-71
2022/08/22 02:08:40;;;;;;;3.23;2.80;;;;;;;19.83;65.90;100149.84;4911794;29;20458;-71
2022/08/22 02:11:10;;;;;;;3.13;2.43;;;;;;;19.80;66.26;100161.91;4915316;29;20641;-72
2022/08/22 02:13:48;;;;;;;3.10;2.13;;;;;;;19.81;65.93;100163.66;4952051;28;20560;-72
2022/08/22 02:16:31;;;;;;;3.23;2.83;;;;;;;19.77;66.00;100160.31;5038281;28;20459;-72
2022/08/22 02:19:11;;;;;;;4.27;2.23;;;;;;;19.78;66.04;100153.84;5072494;28;20457;-71
2022/08/22 02:21:49;;;;;;;3.10;2.27;;;;;;;19.80;65.78;100159.19;5062987;28;20486;-71
2022/08/22 02:24:27;;;;;;;3.50;2.30;;;;;;;19.78;66.07;100161.19;5068691;28;20463;-72
2022/08/22 02:27:08;;;;;;;4.15;2.70;;;;;;;19.78;66.13;100163.91;5070205;28;20458;-71
2022/08/22 02:29:42;;;;;;;6.63;2.60;;;;;;;19.74;66.10;100155.16;5067005;28;20195;-73
2022/08/22 02:32:18;;;;;;;3.17;2.50;;;;;;;19.65;66.70;100150.47;5073072;28;20577;-72
2022/08/22 02:34:55;;;;;;;7.22;2.80;;;;;;;19.67;66.64;100145.72;5069961;28;20455;-72
2022/08/22 02:37:33;;;;;;;4.22;2.80;;;;;;;19.64;66.76;100153.31;5075517;28;20208;-74
2022/08/22 02:40:08;;;;;;;5.40;2.87;;;;;;;19.61;67.07;100154.44;5074760;28;20216;-72
2022/08/22 02:42:42;;;;;;;5.37;2.77;;;;;;;19.50;68.09;100151.78;5075032;28;20977;-72
2022/08/22 02:45:21;;;;;;;3.40;3.07;;;;;;;19.48;68.41;100151.03;5074869;28;20484;-71
2022/08/22 02:47:55;;;;;;;3.20;2.65;;;;;;;19.47;67.92;100152.03;5066733;28;20454;-73
2022/08/22 02:50:30;;;;;;;2.97;2.67;;;;;;;19.46;67.92;100153.03;5079332;28;20730;-71
2022/08/22 02:53:03;;;;;;;4.32;2.60;;;;;;;19.46;68.09;100155.78;5074167;28;20988;-73
2022/08/22 02:55:38;;;;;;;4.70;2.90;;;;;;;19.41;68.14;100158.03;5073790;28;20207;-72
2022/08/22 02:58:15;;;;;;;2.90;2.30;;;;;;;19.25;68.74;100159.34;5077384;28;20454;-72
2022/08/22 03:00:47;;;;;;;4.00;2.83;;;;;;;19.23;70.00;100149.56;5072620;28;20557;-72
2022/08/22 03:03:22;;;;;;;6.07;2.65;;;;;;;19.13;73.17;100155.81;5077411;28;20494;-72
2022/08/22 03:05:59;;;;;;;3.45;2.58;;;;;;;19.06;75.03;100153.72;5070939;28;20699;-73
2022/08/22 03:08:28;;;;;;;3.50;2.53;;;;;;;19.04;74.07;100152.97;5077676;28;20271;-72
2022/08/22 03:11:03;;;;;;;4.25;2.80;;;;;;;18.98;73.02;100153.53;5077434;28;20727;-71
2022/08/22 03:13:40;;;;;;;3.70;2.90;;;;;;;19.08;74.30;100155.31;5070836;28;20327;-71
2022/08/22 03:16:15;;;;;;;5.93;2.92;;;;;;;19.04;73.12;100152.97;5076790;28;20254;-72
2022/08/22 03:18:48;;;;;;;4.80;3.40;;;;;;;18.96;72.58;100148.19;5077257;28;20192;-72
2022/08/22 03:21:24;;;;;;;5.80;2.70;;;;;;;18.95;71.73;100147.31;5079681;28;20224;-74
2022/08/22 03:23:56;;;;;;;4.47;2.60;;;;;;;18.95;72.01;100146.47;5076699;28;20212;-72
2022/08/22 03:26:28;;;;;;;3.35;2.88;;;;;;;18.95;71.52;100141.00;5077352;28;20201;-71
2022/08/22 03:29:01;;;;;;;3.88;2.45;;;;;;;18.92;72.03;100143.97;5077130;28;20690;-72
2022/08/22 03:31:30;;;;;;;3.97;3.15;;;;;;;18.80;72.42;100145.88;5077293;28;20282;-72
2022/08/22 03:34:20;;;;;;;2.88;2.55;;;;;;;18.70;73.40;100142.13;5077771;28;20287;-72
2022/08/22 03:36:56;;;;;;;4.40;3.00;;;;;;;18.64;73.73;100142.69;5068525;28;20213;-72
2022/08/22 03:39:40;;;;;;;4.80;2.75;;;;;;;18.55;75.13;100147.88;5077428;28;20218;-71
2022/08/22 03:42:23;;;;;;;5.85;3.50;;;;;;;18.52;75.11;100145.44;5078201;28;20295;-71
2022/08/22 03:45:21;;;;;;;3.70;3.25;;;;;;;18.52;76.81;100150.03;5078000;28;20200;-72
2022/08/22 03:48:34;;;;;;;5.38;2.95;;;;;;;18.48;75.51;100159.44;5081517;28;20200;-72
2022/08/22 03:51:19;;;;;;;3.78;2.75;;;;;;;18.41;75.84;100152.75;5080792;28;20231;-71
2022/08/22 03:54:22;;;;;;;3.30;2.70;;;;;;;18.37;78.41;100154.88;5072226;28;20207;-71
2022/08/22 03:57:25;;;;;;;5.15;2.80;;;;;;;18.19;81.93;100159.94;5079388;28;20263;-71
2022/08/22 04:00:28;;;;;;;4.35;2.90;;;;;;;18.02;84.51;100160.44;5084638;28;20593;-72
2022/08/22 04:03:15;;;;;;;3.25;2.80;;;;;;;17.91;85.95;100164.03;5085103;28;20200;-72
2022/08/22 04:06:10;;;;;;;3.50;3.10;;;;;;;17.86;85.79;100167.13;5083631;28;20279;-72
2022/08/22 04:09:17;;;;;;;3.60;3.00;;;;;;;17.78;86.55;100171.41;5074417;28;20193;-72
2022/08/22 04:12:01;;;;;;;7.55;3.20;;;;;;;17.66;86.10;100163.22;4998002;28;20242;-72
2022/08/22 04:14:58;;;;;;;6.35;3.40;;;;;;;17.67;85.89;100170.41;4994851;28;20231;-72
2022/08/22 04:17:59;;;;;;;4.32;3.13;;;;;;;17.57;85.67;100172.13;4991620;28;20203;-73
2022/08/22 04:23:22;;;;;;;3.15;2.85;;;;;;;17.59;86.10;100181.03;5039563;28;20319;-71
2022/08/22 04:25:56;;;;;;;4.97;3.33;;;;;;;17.64;84.16;100176.09;5037741;28;20233;-69
2022/08/22 04:28:27;;;;;;;4.95;3.08;;;;;;;17.60;85.04;100171.00;5036709;28;20198;-71
2022/08/22 04:31:05;;;;;;;6.93;3.72;;;;;;;17.56;85.52;100172.25;5040427;28;20786;-69
2022/08/22 04:33:38;;;;;;;4.13;3.22;;;;;;;17.57;84.99;100171.22;5032502;28;20193;-69
2022/08/22 04:36:12;;;;;;;5.25;3.13;;;;;;;17.60;84.72;100174.59;5030613;28;20198;-69
2022/08/22 04:38:43;;;;;;;7.68;3.63;;;;;;;17.59;84.46;100178.31;5028819;28;20236;-71
2022/08/22 04:41:15;;;;;;;5.22;3.28;;;;;;;17.62;84.29;100177.22;5024626;28;20304;-69
2022/08/22 04:43:49;;;;;;;7.47;3.42;;;;;;;17.64;83.97;100177.97;5035199;28;20206;-71
2022/08/22 04:46:25;;;;;;;4.68;3.25;;;;;;;17.60;83.75;100173.75;5036559;28;20202;-70
2022/08/22 04:48:59;;;;;;;4.60;3.50;;;;;;;17.65;83.31;100183.25;5034216;28;20645;-70
2022/08/22 04:51:31;;;;;;;5.55;3.58;;;;;;;17.76;82.51;100182.44;5034415;28;20221;-70
2022/08/22 04:54:27;;;;;;;5.15;3.30;;;;;;;17.82;82.03;100183.81;5033767;28;20186;-70
2022/08/22 04:57:14;;;;;;;7.35;3.40;;;;;;;17.89;81.82;100185.94;5034616;28;20683;-71
2022/08/22 04:59:42;;;;;;;8.07;3.25;;;;;;;17.95;81.84;100195.47;5033930;28;20205;-70
2022/08/22 05:02:11;;;;;;;8.05;3.40;;;;;;;17.95;81.41;100195.47;5033298;28;20231;-69
2022/08/22 05:04:45;;;;;;;4.63;3.28;;;;;;;18.00;80.84;100193.28;5034225;28;20206;-69
2022/08/22 05:07:16;;;;;;;4.47;3.65;;;;;;;18.08;80.52;100193.50;5034249;28;20490;-69
2022/08/22 05:09:47;;;;;;;6.57;4.35;;;;;;;18.04;80.80;100193.88;5033782;28;20335;-70
2022/08/22 05:12:22;;;;;;;4.97;3.60;;;;;;;18.05;80.64;100196.50;5034004;28;20597;-69
2022/08/22 05:14:52;;;;;;;8.95;3.95;;;;;;;18.08;80.73;100198.97;5033687;28;20211;-71
2022/08/22 05:17:23;;;;;;;7.30;3.50;;;;;;;18.22;80.10;100197.00;5037687;28;20590;-69
2022/08/22 05:19:55;;;;;;;6.70;3.83;;;;;;;18.33;78.97;100199.72;5043842;28;20211;-68
2022/08/22 05:22:28;;;;;;;10.68;3.65;;;;;;;18.42;78.48;100198.97;5025114;28;20231;-69
2022/08/22 05:24:58;;;;;;;10.23;3.45;;;;;;;18.44;78.83;100205.16;5037999;28;20555;-71
2022/08/22 05:27:28;;;;;;;6.85;2.78;;;;;;;18.52;77.65;100202.69;5031169;28;20202;-71
2022/08/22 05:30:07;;;;;;;9.48;3.80;;;;;;;18.62;77.61;100199.22;5025673;28;20226;-69
2022/08/22 05:32:44;;;;;;;7.60;3.42;;;;;;;18.66;77.58;100198.81;5026479;28;20217;-70
2022/08/22 05:35:12;;;;;;;6.97;3.28;;;;;;;18.76;78.10;100193.47;5035492;28;20193;-70
2022/08/22 05:37:43;;;;;;;9.40;3.63;;;;;;;18.85;77.27;100195.47;5033204;28;20675;-69
2022/08/22 05:40:17;;;;;;;8.02;3.67;;;;;;;18.95;76.55;100195.59;5033429;28;20579;-69
2022/08/22 05:42:44;;;;;;;6.55;3.25;;;;;;;19.06;76.21;100197.38;5033425;28;20233;-69
2022/08/22 05:45:13;;;;;;;10.00;4.15;;;;;;;19.12;75.81;100199.59;5032702;28;20293;-70
2022/08/22 05:47:42;;;;;;;15.18;4.15;;;;;;;19.14;75.06;100198.47;5030078;28;20798;-69
2022/08/22 05:50:15;;;;;;;8.55;3.50;;;;;;;19.28;74.57;100202.75;5031699;28;20574;-69
2022/08/22 05:52:53;;;;;;;5.47;3.08;;;;;;;19.45;73.67;100197.75;5024375;28;20312;-69
2022/08/22 05:55:26;;;;;;;11.15;3.67;;;;;;;19.54;72.54;100203.28;5040998;28;20198;-69
2022/08/22 05:58:16;;;;;;;5.38;3.38;;;;;;;19.70;70.48;100205.59;5042894;28;20226;-69
2022/08/22 06:00:47;;;;;;;6.72;3.45;;;;;;;19.79;70.17;100212.97;5032506;28;20194;-69
2022/08/22 06:03:18;;;;;;;6.60;3.00;;;;;;;19.97;69.42;100209.66;5031374;28;20210;-69
2022/08/22 06:05:49;;;;;;;8.90;4.03;;;;;;;20.07;68.81;100209.69;5032389;28;20268;-69
2022/08/22 06:08:23;;;;;;;6.00;3.72;;;;;;;20.16;68.40;100220.66;5032346;28;20531;-70
2022/08/22 06:10:53;;;;;;;6.07;3.63;;;;;;;20.27;67.06;100216.13;5031439;28;20228;-69
2022/08/22 06:13:26;;;;;;;9.93;5.43;;;;;;;20.40;66.37;100205.84;5039345;28;20520;-69
2022/08/22 06:16:02;;;;;;;8.60;6.67;;;;;;;20.54;65.59;100213.66;5033333;28;20463;-69
2022/08/22 06:18:31;;;;;;;15.90;8.30;;;;;;;20.75;65.13;100212.75;5041827;28;20444;-69
2022/08/22 06:21:02;;;;;;;7.33;4.53;;;;;;;20.90;63.85;100219.56;5050138;28;20575;-69
2022/08/22 06:23:35;;;;;;;5.43;3.83;;;;;;;21.13;62.48;100213.84;5047828;28;20440;-70
2022/08/22 06:26:02;;;;;;;5.13;3.33;;;;;;;21.38;60.76;100220.63;5032924;28;20816;-71
2022/08/22 06:28:33;;;;;;;10.97;3.30;;;;;;;21.61;59.98;100222.09;5033257;28;20449;-71
2022/08/22 06:31:03;;;;;;;5.13;3.70;;;;;;;21.81;59.08;100225.69;5033349;28;20472;-72
2022/08/22 06:33:32;;;;;;;6.20;3.53;;;;;;;22.24;58.03;100221.56;5026526;28;20460;-72
2022/08/22 06:39:02;;;;;;;7.03;3.87;;;;;;;22.94;55.26;100233.97;5026092;28;20501;-72
2022/08/22 06:41:32;;;;;;;8.77;3.50;;;;;;;23.20;55.00;100243.25;5025946;28;20472;-71
2022/08/22 06:44:01;;;;;;;7.37;4.20;;;;;;;23.35;53.71;100232.56;5041978;28;20439;-70
2022/08/22 06:46:31;;;;;;;5.13;3.57;;;;;;;23.47;53.52;100236.81;5023722;28;20518;-71
2022/08/22 06:49:00;;;;;;;8.13;4.00;;;;;;;23.53;52.89;100238.91;5032539;28;20452;-71
2022/08/22 06:51:30;;;;;;;12.40;4.27;;;;;;;23.44;53.34;100231.63;5038053;28;20494;-71
2022/08/22 06:54:00;;;;;;;7.70;4.57;;;;;;;23.30;53.67;100229.41;5047666;28;20543;-71
2022/08/22 06:56:33;;;;;;;5.40;3.93;;;;;;;23.28;53.70;100231.47;5054877;28;20528;-70
2022/08/22 06:59:03;;;;;;;6.63;3.83;;;;;;;23.16;54.18;100235.47;5030836;28;20524;-72
2022/08/22 07:01:34;;;;;;;9.77;4.10;;;;;;;23.04;54.55;100232.94;5043818;28;20506;-72
2022/08/22 07:04:06;;;;;;;93.23;83.30;;;;;;;23.11;54.19;100227.69;5043174;28;20455;-73
2022/08/22 07:06:38;;;;;;;26.50;23.73;;;;;;;23.14;54.41;100240.25;5035157;28;20445;-74
2022/08/22 07:09:06;;;;;;;156.87;129.40;;;;;;;23.24;54.41;100238.28;5035540;28;20437;-72
2022/08/22 07:11:38;;;;;;;14.97;11.00;;;;;;;23.47;53.43;100250.56;5030319;28;20494;-76
2022/08/22 07:14:07;;;;;;;10.47;6.60;;;;;;;23.69;52.97;100253.84;5032101;28;20445;-71
2022/08/22 07:16:41;;;;;;;9.23;4.40;;;;;;;23.72;52.34;100250.75;5031877;28;20444;-71
2022/08/22 07:19:10;;;;;;;5.47;3.83;;;;;;;23.81;52.09;100249.88;5031455;28;20437;-71
2022/08/22 07:21:45;;;;;;;7.33;3.83;;;;;;;23.65;52.52;100253.31;5031389;28;20467;-72
2022/08/22 07:24:17;;;;;;;6.30;3.50;;;;;;;23.69;52.52;100253.84;5031347;28;20776;-71
2022/08/22 07:27:00;;;;;;;7.20;4.00;;;;;;;23.77;52.52;100258.59;5032167;28;20890;-70
2022/08/22 07:29:35;;;;;;;6.03;3.77;;;;;;;23.90;52.14;100262.66;5031067;28;20443;-72
2022/08/22 07:32:11;;;;;;;6.17;4.37;;;;;;;24.01;52.11;100256.00;5043630;28;20491;-71
2022/08/22 07:34:55;;;;;;;6.20;4.27;;;;;;;23.95;52.41;100262.19;5031065;28;20424;-72
2022/08/22 07:37:38;;;;;;;6.93;4.30;;;;;;;24.40;51.43;100263.88;5031531;28;20428;-69
2022/08/22 07:40:15;;;;;;;6.30;4.87;;;;;;;24.75;50.15;100256.50;5031535;28;20428;-70
2022/08/22 07:42:48;;;;;;;7.37;4.23;;;;;;;25.63;48.16;100260.75;5031110;28;20460;-71
2022/08/22 07:45:19;;;;;;;7.70;3.70;;;;;;;26.67;nan;100261.91;5030825;28;20476;-70
2022/08/22 07:47:59;;;;;;;5.93;3.60;;;;;;;27.57;43.02;100259.56;5033381;28;20539;-72
2022/08/22 07:50:29;;;;;;;5.93;4.93;;;;;;;26.92;44.41;100259.91;5047286;28;20432;-73
2022/08/22 07:53:04;;;;;;;6.83;4.73;;;;;;;27.19;44.18;100262.19;5035317;28;20995;-74
2022/08/22 07:55:32;;;;;;;7.73;5.93;;;;;;;27.60;43.82;100266.63;5017294;28;20805;-72
2022/08/22 07:58:03;;;;;;;7.77;4.10;;;;;;;27.00;44.58;100260.75;5034938;28;20445;-72
2022/08/22 08:00:31;;;;;;;6.33;4.83;;;;;;;27.94;43.54;100257.94;5033230;28;20828;-73
2022/08/22 08:03:01;;;;;;;7.00;4.60;;;;;;;28.74;41.25;100264.78;5042206;28;20463;-71
2022/08/22 08:05:32;;;;;;;5.53;4.13;;;;;;;29.40;40.08;100262.00;5031060;28;20474;-71
2022/08/22 08:08:05;;;;;;;35.50;31.83;;;;;;;29.78;38.98;100263.69;5032398;28;20463;-72
2022/08/22 08:10:34;;;;;;;21.60;19.13;;;;;;;30.36;38.33;100267.22;5045852;28;20416;-71
2022/08/22 08:13:04;;;;;;;8.53;7.67;;;;;;;30.94;36.97;100261.44;5045352;28;20476;-74
2022/08/22 08:15:34;;;;;;;6.60;5.73;;;;;;;31.45;36.11;100268.50;5036443;28;21197;-72
2022/08/22 08:18:05;;;;;;;11.73;7.63;;;;;;;32.47;34.55;100264.53;5038081;28;20437;-73
2022/08/22 08:20:35;;;;;;;8.73;5.60;;;;;;;33.22;33.81;100270.59;5040430;28;20549;-69
2022/08/22 08:23:04;;;;;;;7.10;4.37;;;;;;;33.73;32.79;100262.41;5031240;28;20802;-72
2022/08/22 08:25:33;;;;;;;8.23;4.47;;;;;;;33.42;33.52;100258.47;5049640;28;20459;-71
2022/08/22 08:30:48;;;;;;;4.07;3.67;;;;;;;34.03;32.28;100262.59;5029246;28;21519;-69
2022/08/22 08:33:20;;;;;;;6.00;4.23;;;;;;;34.28;32.73;100261.78;5026266;28;20549;-71
2022/08/22 08:35:52;;;;;;;5.00;4.00;;;;;;;34.36;32.48;100255.91;5041841;28;20456;-69
2022/08/22 08:38:23;;;;;;;5.70;4.20;;;;;;;34.28;32.65;100265.41;5033796;28;20432;-70
2022/08/22 08:41:05;;;;;;;4.97;4.50;;;;;;;35.01;31.79;100263.84;5033812;28;20463;-74
2022/08/22 08:43:44;;;;;;;6.30;4.20;;;;;;;36.04;30.51;100254.41;5034179;28;20857;-69
2022/08/22 08:46:39;;;;;;;4.40;4.00;;;;;;;35.31;31.17;100266.72;5033623;28;20817;-68
2022/08/22 08:49:19;;;;;;;5.10;4.40;;;;;;;36.10;30.37;100267.47;5033300;28;20440;-70
2022/08/22 08:52:06;;;;;;;8.07;3.73;;;;;;;35.93;30.32;100260.84;5033028;28;20460;-68
2022/08/22 08:55:07;;;;;;;5.30;4.40;;;;;;;36.70;29.75;100269.28;5033494;28;20445;-68
2022/08/22 08:57:48;;;;;;;12.00;4.40;;;;;;;37.79;28.45;100261.16;5004068;28;20446;-68
2022/08/22 09:00:21;;;;;;;5.50;5.00;;;;;;;37.85;28.49;100263.81;5015106;28;20547;-69
2022/08/22 09:02:55;;;;;;;6.03;4.03;;;;;;;37.44;28.46;100256.53;5033166;28;20530;-70
2022/08/22 09:05:54;;;;;;;3.90;3.60;;;;;;;38.11;28.02;100258.69;5033253;28;20486;-70
2022/08/22 09:08:59;;;;;;;4.60;3.70;;;;;;;38.47;27.53;100257.31;5033420;28;20421;-69
2022/08/22 09:11:57;;;;;;;3.80;3.50;;;;;;;38.61;26.44;100255.00;5033235;28;20460;-69
2022/08/22 09:14:54;;;;;;;6.07;3.80;;;;;;;36.50;28.25;100269.63;5033273;28;20929;-70
2022/08/22 09:17:39;;;;;;;4.30;3.90;;;;;;;35.90;29.57;100256.59;4952085;29;20508;-71
2022/08/22 09:20:30;;;;;;;4.10;3.70;;;;;;;36.45;28.89;100255.47;4952898;29;20503;-70
2022/08/22 09:23:18;;;;;;;4.33;3.93;;;;;;;36.34;28.64;100245.13;4952938;29;20452;-70
2022/08/22 09:25:51;;;;;;;4.63;3.73;;;;;;;37.65;27.12;100246.56;4952954;29;20444;-68
2022/08/22 09:28:28;;;;;;;4.00;3.30;;;;;;;38.11;26.76;100239.00;4952390;29;20499;-70
2022/08/22 09:31:07;;;;;;;5.83;3.77;;;;;;;39.57;25.68;100248.09;4952505;29;20555;-67
2022/08/22 09:33:44;;;;;;;3.60;3.30;;;;;;;40.45;24.31;100244.97;4952382;29;20603;-70
2022/08/22 09:36:18;;;;;;;3.70;3.40;;;;;;;40.59;23.85;100245.31;4952804;29;20821;-69
2022/08/22 09:38:55;;;;;;;4.60;3.10;;;;;;;39.65;24.97;100239.16;4952394;29;20421;-69
2022/08/22 09:41:35;;;;;;;3.97;3.63;;;;;;;38.82;25.86;100244.88;4952293;29;20468;-70
2022/08/22 09:44:15;;;;;;;3.83;3.40;;;;;;;38.99;25.40;100230.78;4952142;29;20420;-68
2022/08/22 09:46:51;;;;;;;4.00;3.20;;;;;;;38.64;25.54;100229.13;4951800;29;20898;-69
2022/08/22 09:49:26;;;;;;;3.60;3.07;;;;;;;38.41;25.43;100212.47;4952269;29;20435;-70
2022/08/22 09:52:04;;;;;;;3.60;3.30;;;;;;;39.45;24.86;100211.63;4951823;29;20467;-67
2022/08/22 09:54:36;;;;;;;4.43;3.30;;;;;;;39.89;23.90;100210.66;4989817;28;21001;-69
2022/08/22 09:57:16;;;;;;;4.70;2.90;;;;;;;40.51;23.45;100214.81;5032832;28;20460;-70
2022/08/22 10:00:05;;;;;;;4.67;3.00;;;;;;;39.49;24.25;100211.97;5031649;28;20463;-69
2022/08/22 10:02:37;;;;;;;4.00;3.20;;;;;;;39.19;24.19;100202.00;5049164;28;20531;-69
2022/08/22 10:05:15;;;;;;;7.30;2.70;;;;;;;41.44;22.42;100214.13;5052268;28;20447;-69
2022/08/22 10:08:08;;;;;;;6.40;3.50;;;;;;;41.94;21.49;100195.53;5051932;28;20430;-68
2022/08/22 10:10:50;;;;;;;8.13;3.40;;;;;;;41.82;21.59;100198.66;5051695;28;20424;-71
2022/08/22 10:13:29;;;;;;;4.90;2.73;;;;;;;41.00;21.99;100189.97;5051968;28;20474;-69
2022/08/22 10:16:12;;;;;;;3.17;2.60;;;;;;;40.83;22.24;100193.00;5052731;28;20510;-72
2022/08/22 10:18:50;;;;;;;2.53;2.30;;;;;;;39.87;22.81;100174.28;5051798;28;20800;-69
2022/08/22 10:24:00;;;;;;;3.30;2.80;;;;;;;38.86;24.06;100177.66;5051244;28;20475;-70
2022/08/22 10:26:32;;;;;;;4.70;3.10;;;;;;;38.61;24.12;100176.22;5053029;28;20424;-71
2022/08/22 10:29:10;;;;;;;3.53;2.50;;;;;;;40.35;22.62;100175.22;5052384;28;20434;-69
2022/08/22 10:31:48;;;;;;;4.87;3.10;;;;;;;40.28;21.63;100176.59;5052472;28;20499;-70
2022/08/22 10:34:20;;;;;;;2.70;2.50;;;;;;;36.42;24.65;100171.84;5052345;28;20474;-69
2022/08/22 10:37:01;;;;;;;3.20;2.73;;;;;;;37.37;23.78;100166.84;5052530;28;20523;-69
2022/08/22 10:39:33;;;;;;;3.00;2.50;;;;;;;38.93;22.21;100175.53;5051793;28;20949;-69
2022/08/22 10:42:15;;;;;;;5.10;2.40;;;;;;;40.36;21.44;100176.91;5052507;28;20458;-69
2022/08/22 10:44:51;;;;;;;2.37;2.13;;;;;;;42.02;20.06;100169.53;5053050;28;20520;-69
2022/08/22 10:47:26;;;;;;;4.63;2.27;;;;;;;42.98;18.87;100174.41;5052666;28;20422;-69
2022/08/22 10:49:56;;;;;;;2.83;2.40;;;;;;;44.11;17.74;100172.50;5052338;28;20439;-69
2022/08/22 10:52:26;;;;;;;3.90;2.60;;;;;;;43.68;18.06;100183.63;5042626;28;20492;-70
2022/08/22 10:54:59;;;;;;;2.70;1.87;;;;;;;43.85;17.67;100168.16;5034911;28;20440;-68
2022/08/22 10:57:52;;;;;;;2.83;2.40;;;;;;;43.63;18.05;100168.66;5052376;28;20933;-69
2022/08/22 11:00:38;;;;;;;2.23;1.90;;;;;;;40.99;20.44;100165.66;5042015;28;20444;-69
2022/08/22 11:03:15;;;;;;;3.00;2.33;;;;;;;39.27;21.03;100141.56;5043377;28;20472;-69
2022/08/22 11:05:44;;;;;;;3.70;2.10;;;;;;;38.57;21.60;100150.56;5038379;28;20467;-69
2022/08/22 11:08:28;;;;;;;2.77;1.80;;;;;;;40.48;20.58;100156.09;5039373;28;20551;-69
2022/08/22 11:11:08;;;;;;;3.10;1.97;;;;;;;42.14;19.55;100154.25;5043262;28;20492;-68
2022/08/22 11:13:41;;;;;;;2.33;2.13;;;;;;;38.49;21.61;100158.59;5033849;28;20541;-70
2022/08/22 11:16:17;;;;;;;2.20;2.00;;;;;;;36.48;23.40;100150.38;5034297;28;20460;-68
2022/08/22 11:19:07;;;;;;;3.97;2.30;;;;;;;39.18;21.10;100152.44;5044995;28;20925;-70
2022/08/22 11:21:48;;;;;;;5.10;2.10;;;;;;;40.94;20.26;100150.69;5053206;28;20436;-68
2022/08/22 11:24:56;;;;;;;2.50;1.93;;;;;;;41.47;18.95;100149.44;5037742;28;20421;-68
2022/08/22 11:27:33;;;;;;;2.13;1.60;;;;;;;42.73;18.95;100152.69;5039804;28;20973;-69
2022/08/22 11:30:06;;;;;;;2.20;1.97;;;;;;;37.91;21.51;100133.50;5032033;28;20955;-68
2022/08/22 11:32:37;;;;;;;4.07;2.17;;;;;;;40.80;19.94;100139.91;5035118;28;20461;-68
2022/08/22 11:35:11;;;;;;;3.27;2.13;;;;;;;42.81;18.67;100141.66;5035535;28;20433;-68
2022/08/22 11:37:47;;;;;;;2.07;1.90;;;;;;;44.06;17.74;100141.34;5035468;28;20942;-70
2022/08/22 11:40:32;;;;;;;4.03;1.67;;;;;;;44.71;17.46;100135.22;5035754;28;20787;-69
2022/08/22 11:43:10;;;;;;;2.30;2.10;;;;;;;45.74;16.33;100142.28;5034331;28;20555;-69
2022/08/22 11:45:41;;;;;;;4.20;1.60;;;;;;;44.93;16.69;100136.66;5038038;28;20455;-68
2022/08/22 11:48:12;;;;;;;1.77;1.63;;;;;;;45.61;16.37;100143.06;5051756;28;20436;-69
2022/08/22 11:50:45;;;;;;;3.03;2.00;;;;;;;43.83;17.20;100137.28;5042075;28;20471;-69
2022/08/22 11:53:24;;;;;;;2.57;1.93;;;;;;;43.14;17.86;100121.34;5052699;28;20846;-69
2022/08/22 11:56:02;;;;;;;2.30;1.67;;;;;;;44.16;17.53;100119.69;5037987;28;20515;-70
2022/08/22 11:58:43;;;;;;;2.80;2.07;;;;;;;45.52;16.45;100126.69;5035310;28;20464;-68
2022/08/22 12:01:13;;;;;;;1.50;1.27;;;;;;;46.34;15.85;100128.09;5041518;28;20527;-69
2022/08/22 12:03:50;;;;;;;3.27;1.60;;;;;;;44.28;16.95;100126.63;5048080;28;20461;-69
2022/08/22 12:06:36;;;;;;;4.20;2.17;;;;;;;42.67;18.07;100124.41;5055496;28;20443;-69
2022/08/22 12:09:15;;;;;;;2.97;1.70;;;;;;;40.53;19.55;100123.13;5046812;28;20460;-69
2022/08/22 12:11:51;;;;;;;2.30;2.00;;;;;;;37.88;21.49;100107.88;5032904;28;20480;-70
2022/08/22 12:14:26;;;;;;;2.80;1.90;;;;;;;36.10;23.06;100107.72;5044263;28;20539;-69
2022/08/22 12:17:04;;;;;;;4.20;1.87;;;;;;;36.82;22.65;100103.72;5043640;28;20451;-70
2022/08/22 12:19:36;;;;;;;4.03;2.57;;;;;;;38.50;21.52;100106.88;5033568;28;20436;-68
2022/08/22 12:22:52;;;;;;;3.70;2.10;;;;;;;36.75;23.07;100097.41;5042505;28;20494;-69
2022/08/22 12:25:35;;;;;;;2.90;1.87;;;;;;;35.33;24.07;100090.13;5022278;28;20535;-68
2022/08/22 12:28:14;;;;;;;4.40;2.43;;;;;;;34.13;25.38;100080.53;5046079;28;20455;-69